Time,TemperatureF,DewpointF,PressureIn,WindDirection,WindDirectionDegrees,WindSpeedMPH,WindSpeedGustMPH,Humidity,HourlyPrecipIn,Conditions,Clouds,dailyrainin,SoftwareType,DateUTC
2013-01-09 00:02:00,23.9,10.4,30.41,NE,54,5.0,5.0,56,0.00,,,0.00,meteohub,2013-01-09 07:02:00,
2013-01-09 00:12:00,24.3,10.4,30.41,NE,54,4.0,6.0,55,0.00,,,0.00,meteohub,2013-01-09 07:12:00,
2013-01-09 00:22:00,24.4,9.7,30.42,NE,54,2.0,5.0,53,0.00,,,0.00,meteohub,2013-01-09 07:22:00,
2013-01-09 00:32:00,23.2,9.3,30.42,NE,54,0.0,5.0,55,0.00,,,0.00,meteohub,2013-01-09 07:32:00,
2013-01-09 00:42:00,22.6,9.3,30.41,NE,54,0.0,3.0,56,0.00,,,0.00,meteohub,2013-01-09 07:42:00,
2013-01-09 00:52:00,22.3,9.3,30.42,NE,54,2.0,2.0,57,0.00,,,0.00,meteohub,2013-01-09 07:52:00,
2013-01-09 01:02:00,21.9,9.3,30.42,NE,54,0.0,3.0,58,0.00,,,0.00,meteohub,2013-01-09 08:02:00,
2013-01-09 01:12:00,22.1,9.5,30.41,NE,54,0.0,1.0,58,0.00,,,0.00,meteohub,2013-01-09 08:12:00,
2013-01-09 01:22:00,22.5,9.5,30.41,NE,54,3.0,4.0,57,0.00,,,0.00,meteohub,2013-01-09 08:22:00,
2013-01-09 01:32:00,21.9,9.0,30.41,NE,54,3.0,5.0,57,0.00,,,0.00,meteohub,2013-01-09 08:32:00,
2013-01-09 01:42:00,21.2,9.1,30.41,NE,54,7.0,7.0,59,0.00,,,0.00,meteohub,2013-01-09 08:42:00,
2013-01-09 01:52:00,21.6,9.1,30.42,NE,54,2.0,7.0,58,0.00,,,0.00,meteohub,2013-01-09 08:52:00,
2013-01-09 02:02:00,21.0,9.0,30.42,NE,54,0.0,5.0,59,0.00,,,0.00,meteohub,2013-01-09 09:02:00,
2013-01-09 02:12:00,20.7,8.6,30.43,NE,54,2.0,5.0,59,0.00,,,0.00,meteohub,2013-01-09 09:12:00,
2013-01-09 02:22:00,20.1,9.1,30.43,NE,54,0.0,3.0,62,0.00,,,0.00,meteohub,2013-01-09 09:22:00,
2013-01-09 02:32:00,20.1,9.5,30.43,NE,54,0.0,2.0,63,0.00,,,0.00,meteohub,2013-01-09 09:32:00,
2013-01-09 02:42:00,20.5,9.5,30.43,NE,54,3.0,4.0,62,0.00,,,0.00,meteohub,2013-01-09 09:42:00,
2013-01-09 02:52:00,21.4,9.7,30.42,NE,54,3.0,4.0,60,0.00,,,0.00,meteohub,2013-01-09 09:52:00,
2013-01-09 03:02:00,22.3,9.7,30.42,NE,54,2.0,5.0,58,0.00,,,0.00,meteohub,2013-01-09 10:02:00,
2013-01-09 03:12:00,22.6,9.0,30.42,NE,54,0.0,5.0,55,0.00,,,0.00,meteohub,2013-01-09 10:12:00,
2013-01-09 03:22:00,22.5,9.5,30.41,NE,54,0.0,2.0,57,0.00,,,0.00,meteohub,2013-01-09 10:22:00,
2013-01-09 03:32:00,21.6,8.2,30.42,NE,54,3.0,4.0,56,0.00,,,0.00,meteohub,2013-01-09 10:32:00,
2013-01-09 03:42:00,19.9,7.5,30.42,NE,54,2.0,6.0,58,0.00,,,0.00,meteohub,2013-01-09 10:42:00,
2013-01-09 03:52:00,18.9,7.3,30.42,NE,54,3.0,5.0,60,0.00,,,0.00,meteohub,2013-01-09 10:52:00,
2013-01-09 04:02:00,18.7,8.2,30.43,NE,54,2.0,5.0,63,0.00,,,0.00,meteohub,2013-01-09 11:02:00,
2013-01-09 04:12:00,18.5,7.3,30.43,NE,54,1.0,3.0,61,0.00,,,0.00,meteohub,2013-01-09 11:12:00,
2013-01-09 04:22:00,19.0,7.9,30.43,NE,54,3.0,3.0,61,0.00,,,0.00,meteohub,2013-01-09 11:22:00,
2013-01-09 04:32:00,19.9,7.9,30.42,NE,54,2.0,6.0,59,0.00,,,0.00,meteohub,2013-01-09 11:32:00,
2013-01-09 04:42:00,19.6,7.2,30.43,NE,54,1.0,7.0,58,0.00,,,0.00,meteohub,2013-01-09 11:42:00,
2013-01-09 04:52:00,19.4,7.0,30.43,NE,54,3.0,4.0,58,0.00,,,0.00,meteohub,2013-01-09 11:52:00,
2013-01-09 05:02:00,19.8,7.7,30.43,NE,54,3.0,4.0,59,0.00,,,0.00,meteohub,2013-01-09 12:02:00,
2013-01-09 05:12:00,20.1,7.7,30.43,NE,54,0.0,4.0,58,0.00,,,0.00,meteohub,2013-01-09 12:12:00,
2013-01-09 05:22:00,20.1,7.3,30.44,NE,54,5.0,5.0,57,0.00,,,0.00,meteohub,2013-01-09 12:22:00,
2013-01-09 05:32:00,19.8,7.3,30.44,NE,54,4.0,5.0,58,0.00,,,0.00,meteohub,2013-01-09 12:32:00,
2013-01-09 05:42:00,19.6,7.5,30.45,NE,54,2.0,5.0,59,0.00,,,0.00,meteohub,2013-01-09 12:42:00,
2013-01-09 05:52:00,19.4,7.3,30.45,NE,54,2.0,4.0,59,0.00,,,0.00,meteohub,2013-01-09 12:52:00,
2013-01-09 06:02:00,18.9,7.0,30.45,NE,54,3.0,5.0,59,0.00,,,0.00,meteohub,2013-01-09 13:02:00,
2013-01-09 06:12:00,18.9,6.4,30.45,NE,54,7.0,7.0,58,0.00,,,0.00,meteohub,2013-01-09 13:12:00,
2013-01-09 06:22:00,19.2,7.2,30.46,NE,54,4.0,7.0,59,0.00,,,0.00,meteohub,2013-01-09 13:22:00,
2013-01-09 06:32:00,19.4,6.6,30.46,NE,54,3.0,5.0,57,0.00,,,0.00,meteohub,2013-01-09 13:32:00,
2013-01-09 06:42:00,19.8,7.0,30.46,NE,54,4.0,5.0,57,0.00,,,0.00,meteohub,2013-01-09 13:42:00,
2013-01-09 06:52:00,19.9,6.8,30.47,NE,54,3.0,5.0,56,0.00,,,0.00,meteohub,2013-01-09 13:52:00,
2013-01-09 07:02:00,20.5,6.8,30.47,NE,54,3.0,5.0,55,0.00,,,0.00,meteohub,2013-01-09 14:02:00,
2013-01-09 07:12:00,20.7,7.0,30.48,NE,54,2.0,4.0,55,0.00,,,0.00,meteohub,2013-01-09 14:12:00,
2013-01-09 07:22:00,20.7,6.6,30.49,NE,54,3.0,3.0,54,0.00,,,0.00,meteohub,2013-01-09 14:22:00,
2013-01-09 07:32:00,20.1,6.6,30.50,NE,54,3.0,5.0,55,0.00,,,0.00,meteohub,2013-01-09 14:32:00,
2013-01-09 07:42:00,20.3,6.3,30.50,NE,54,0.0,6.0,54,0.00,,,0.00,meteohub,2013-01-09 14:42:00,
2013-01-09 07:52:00,21.2,6.8,30.49,NE,54,4.0,4.0,53,0.00,,,0.00,meteohub,2013-01-09 14:52:00,
2013-01-09 08:02:00,22.3,8.2,30.51,NE,54,0.0,5.0,54,0.00,,,0.00,meteohub,2013-01-09 15:02:00,
2013-01-09 08:12:00,22.8,7.9,30.52,NE,54,1.0,4.0,52,0.00,,,0.00,meteohub,2013-01-09 15:12:00,
2013-01-09 08:22:00,23.5,8.4,30.53,NE,54,4.0,4.0,52,0.00,,,0.00,meteohub,2013-01-09 15:22:00,
2013-01-09 08:32:00,25.3,8.8,30.53,NE,54,5.0,7.0,49,0.00,,,0.00,meteohub,2013-01-09 15:32:00,
2013-01-09 08:42:00,27.7,8.6,30.53,NE,54,4.0,7.0,44,0.00,,,0.00,meteohub,2013-01-09 15:42:00,
2013-01-09 08:52:00,28.9,8.8,30.54,NE,54,1.0,5.0,42,0.00,,,0.00,meteohub,2013-01-09 15:52:00,
2013-01-09 09:02:00,28.6,9.5,30.53,NE,54,3.0,6.0,44,0.00,,,0.00,meteohub,2013-01-09 16:02:00,
2013-01-09 09:12:00,27.3,9.7,30.54,NE,54,2.0,6.0,47,0.00,,,0.00,meteohub,2013-01-09 16:12:00,
2013-01-09 09:22:00,27.5,9.9,30.54,NE,54,0.0,4.0,47,0.00,,,0.00,meteohub,2013-01-09 16:22:00,
2013-01-09 09:32:00,27.9,10.2,30.54,NE,54,0.0,6.0,47,0.00,,,0.00,meteohub,2013-01-09 16:32:00,
2013-01-09 09:42:00,29.5,10.2,30.55,NE,54,0.0,6.0,44,0.00,,,0.00,meteohub,2013-01-09 16:42:00,
2013-01-09 09:52:00,30.7,10.4,30.55,NE,54,3.0,4.0,42,0.00,,,0.00,meteohub,2013-01-09 16:52:00,
2013-01-09 10:02:00,31.5,10.4,30.55,NE,54,6.0,6.0,41,0.00,,,0.00,meteohub,2013-01-09 17:02:00,
2013-01-09 10:12:00,31.5,9.9,30.56,ENE,64,5.0,8.0,40,0.00,,,0.00,meteohub,2013-01-09 17:12:00,
2013-01-09 10:22:00,31.3,10.2,30.55,North,0,6.0,8.0,41,0.00,,,0.00,meteohub,2013-01-09 17:22:00,
2013-01-09 10:32:00,31.6,10.0,30.55,NW,322,7.0,9.0,40,0.00,,,0.00,meteohub,2013-01-09 17:32:00,
2013-01-09 10:42:00,32.0,10.4,30.54,WSW,258,4.0,8.0,40,0.00,,,0.00,meteohub,2013-01-09 17:42:00,
2013-01-09 10:52:00,32.4,10.2,30.53,WSW,258,3.0,9.0,39,0.00,,,0.00,meteohub,2013-01-09 17:52:00,
2013-01-09 11:02:00,32.5,9.7,30.53,WSW,258,1.0,8.0,38,0.00,,,0.00,meteohub,2013-01-09 18:02:00,
2013-01-09 11:12:00,33.3,10.9,30.52,WSW,258,4.0,7.0,39,0.00,,,0.00,meteohub,2013-01-09 18:12:00,
2013-01-09 11:22:00,33.6,10.8,30.51,WSW,258,3.0,7.0,38,0.00,,,0.00,meteohub,2013-01-09 18:22:00,
2013-01-09 11:32:00,35.2,11.5,30.50,SSW,195,10.0,14.0,37,0.00,,,0.00,meteohub,2013-01-09 18:32:00,
2013-01-09 11:42:00,36.3,11.3,30.49,South,187,12.0,15.0,35,0.00,,,0.00,meteohub,2013-01-09 18:42:00,
2013-01-09 11:52:00,36.5,11.5,30.48,South,180,5.0,15.0,35,0.00,,,0.00,meteohub,2013-01-09 18:52:00,
2013-01-09 12:02:00,37.6,11.7,30.47,South,191,8.0,13.0,34,0.00,,,0.00,meteohub,2013-01-09 19:02:00,
2013-01-09 12:12:00,38.3,10.9,30.47,South,182,4.0,11.0,32,0.00,,,0.00,meteohub,2013-01-09 19:12:00,
2013-01-09 12:22:00,39.4,12.0,30.45,SSW,193,4.0,11.0,32,0.00,,,0.00,meteohub,2013-01-09 19:22:00,
2013-01-09 12:32:00,39.9,10.9,30.45,South,182,2.0,9.0,30,0.00,,,0.00,meteohub,2013-01-09 19:32:00,
2013-01-09 12:42:00,40.6,10.9,30.44,South,182,0.0,9.0,29,0.00,,,0.00,meteohub,2013-01-09 19:42:00,
2013-01-09 12:52:00,41.5,11.7,30.43,South,182,3.0,8.0,29,0.00,,,0.00,meteohub,2013-01-09 19:52:00,
2013-01-09 13:02:00,42.8,12.7,30.42,South,178,7.0,7.0,29,0.00,,,0.00,meteohub,2013-01-09 20:02:00,
2013-01-09 13:12:00,43.5,10.9,30.42,SSW,199,6.0,9.0,26,0.00,,,0.00,meteohub,2013-01-09 20:12:00,
2013-01-09 13:22:00,43.9,12.0,30.42,SSW,195,10.0,15.0,27,0.00,,,0.00,meteohub,2013-01-09 20:22:00,
2013-01-09 13:32:00,42.6,10.9,30.41,SSW,200,8.0,20.0,27,0.00,,,0.00,meteohub,2013-01-09 20:32:00,
2013-01-09 13:42:00,41.5,11.7,30.41,SSW,201,7.0,20.0,29,0.00,,,0.00,meteohub,2013-01-09 20:42:00,
2013-01-09 13:52:00,40.5,11.5,30.41,SSW,209,9.0,20.0,30,0.00,,,0.00,meteohub,2013-01-09 20:52:00,
2013-01-09 14:02:00,39.7,11.5,30.41,South,188,11.0,20.0,31,0.00,,,0.00,meteohub,2013-01-09 21:02:00,
2013-01-09 14:12:00,39.2,11.8,30.41,SSW,201,12.0,21.0,32,0.00,,,0.00,meteohub,2013-01-09 21:12:00,
2013-01-09 14:22:00,39.4,11.3,30.41,SSW,192,10.0,21.0,31,0.00,,,0.00,meteohub,2013-01-09 21:22:00,
2013-01-09 14:32:00,40.1,11.8,30.40,SW,216,13.0,20.0,31,0.00,,,0.00,meteohub,2013-01-09 21:32:00,
2013-01-09 14:42:00,40.5,10.8,30.40,South,191,11.0,20.0,29,0.00,,,0.00,meteohub,2013-01-09 21:42:00,
2013-01-09 14:52:00,40.6,10.9,30.40,South,189,11.0,20.0,29,0.00,,,0.00,meteohub,2013-01-09 21:52:00,
2013-01-09 15:02:00,40.8,10.9,30.40,South,189,11.0,20.0,29,0.00,,,0.00,meteohub,2013-01-09 22:02:00,
2013-01-09 15:12:00,41.2,10.6,30.40,SSW,198,8.0,18.0,28,0.00,,,0.00,meteohub,2013-01-09 22:12:00,
2013-01-09 15:22:00,41.2,10.6,30.40,SSW,207,8.0,18.0,28,0.00,,,0.00,meteohub,2013-01-09 22:22:00,
2013-01-09 15:32:00,41.4,9.9,30.40,South,185,5.0,18.0,27,0.00,,,0.00,meteohub,2013-01-09 22:32:00,
2013-01-09 15:42:00,41.5,10.0,30.39,South,180,6.0,16.0,27,0.00,,,0.00,meteohub,2013-01-09 22:42:00,
2013-01-09 15:52:00,41.4,9.9,30.39,South,181,5.0,17.0,27,0.00,,,0.00,meteohub,2013-01-09 22:52:00,
2013-01-09 16:02:00,41.4,9.0,30.38,South,178,10.0,16.0,26,0.00,,,0.00,meteohub,2013-01-09 23:02:00,
2013-01-09 16:12:00,41.2,9.0,30.38,South,180,6.0,14.0,26,0.00,,,0.00,meteohub,2013-01-09 23:12:00,
2013-01-09 16:22:00,40.5,9.1,30.38,SSE,166,3.0,13.0,27,0.00,,,0.00,meteohub,2013-01-09 23:22:00,
2013-01-09 16:32:00,39.0,7.9,30.38,South,177,5.0,12.0,27,0.00,,,0.00,meteohub,2013-01-09 23:32:00,
2013-01-09 16:42:00,37.8,8.4,30.38,South,169,1.0,14.0,29,0.00,,,0.00,meteohub,2013-01-09 23:42:00,
2013-01-09 16:52:00,36.9,8.2,30.38,South,180,6.0,6.0,30,0.00,,,0.00,meteohub,2013-01-09 23:52:00,
2013-01-09 17:02:00,36.1,8.4,30.38,SSW,196,7.0,9.0,31,0.00,,,0.00,meteohub,2013-01-10 00:02:00,
2013-01-09 17:12:00,35.4,7.7,30.38,SSW,209,5.0,13.0,31,0.00,,,0.00,meteohub,2013-01-10 00:12:00,
2013-01-09 17:22:00,35.8,8.1,30.38,SW,214,3.0,13.0,31,0.00,,,0.00,meteohub,2013-01-10 00:22:00,
2013-01-09 17:32:00,36.1,7.7,30.38,SW,220,6.0,12.0,30,0.00,,,0.00,meteohub,2013-01-10 00:32:00,
2013-01-09 17:42:00,36.1,8.4,30.38,SSW,212,8.0,18.0,31,0.00,,,0.00,meteohub,2013-01-10 00:42:00,
2013-01-09 17:52:00,36.5,8.1,30.37,South,187,6.0,15.0,30,0.00,,,0.00,meteohub,2013-01-10 00:52:00,
2013-01-09 18:02:00,36.7,8.2,30.37,SSW,207,8.0,22.0,30,0.00,,,0.00,meteohub,2013-01-10 01:02:00,
2013-01-09 18:12:00,36.5,8.1,30.37,SSW,201,9.0,22.0,30,0.00,,,0.00,meteohub,2013-01-10 01:12:00,
2013-01-09 18:32:00,34.7,7.9,30.37,SSW,207,3.0,11.0,32,0.00,,,0.00,meteohub,2013-01-10 01:32:00,
2013-01-09 18:42:00,34.3,8.2,30.37,SSW,203,2.0,10.0,33,0.00,,,0.00,meteohub,2013-01-10 01:42:00,
2013-01-09 19:02:00,33.3,8.6,30.35,SSW,202,2.0,8.0,35,0.00,,,0.00,meteohub,2013-01-10 02:02:00,
2013-01-09 19:12:00,34.0,7.9,30.35,SSW,202,0.0,6.0,33,0.00,,,0.00,meteohub,2013-01-10 02:12:00,
2013-01-09 19:22:00,33.4,8.1,30.35,SSW,202,2.0,6.0,34,0.00,,,0.00,meteohub,2013-01-10 02:22:00,
2013-01-09 19:32:00,33.6,7.5,30.35,SSW,207,3.0,5.0,33,0.00,,,0.00,meteohub,2013-01-10 02:32:00,
2013-01-09 19:42:00,34.0,7.9,30.35,SSW,210,3.0,7.0,33,0.00,,,0.00,meteohub,2013-01-10 02:42:00,
2013-01-09 20:02:00,34.3,8.2,30.35,SW,229,5.0,8.0,33,0.00,,,0.00,meteohub,2013-01-10 03:02:00,
2013-01-09 20:23:00,33.8,7.0,30.34,SW,227,1.0,8.0,32,0.00,,,0.00,meteohub,2013-01-10 03:23:00,
2013-01-09 20:32:00,32.7,6.8,30.33,SW,227,0.0,8.0,33,0.00,,,0.00,meteohub,2013-01-10 03:32:00,
2013-01-09 20:42:00,31.5,6.3,30.33,SW,227,0.0,2.0,34,0.00,,,0.00,meteohub,2013-01-10 03:42:00,
2013-01-09 20:52:00,30.7,7.0,30.33,SW,227,0.0,4.0,36,0.00,,,0.00,meteohub,2013-01-10 03:52:00,
2013-01-09 21:02:00,32.2,7.0,30.32,SW,228,4.0,7.0,34,0.00,,,0.00,meteohub,2013-01-10 04:02:00,
2013-01-09 21:12:00,33.1,5.7,30.31,SSW,207,7.0,9.0,31,0.00,,,0.00,meteohub,2013-01-10 04:12:00,
2013-01-09 21:22:00,32.7,6.8,30.30,SSW,213,3.0,11.0,33,0.00,,,0.00,meteohub,2013-01-10 04:22:00,
2013-01-09 21:32:00,31.6,7.2,30.30,SSW,213,2.0,5.0,35,0.00,,,0.00,meteohub,2013-01-10 04:32:00,
2013-01-09 21:42:00,31.5,6.3,30.30,SSW,213,2.0,6.0,34,0.00,,,0.00,meteohub,2013-01-10 04:42:00,
2013-01-09 21:52:00,30.0,6.3,30.31,SSW,213,4.0,4.0,36,0.00,,,0.00,meteohub,2013-01-10 04:52:00,
2013-01-09 22:03:00,29.1,6.6,30.30,SSW,213,2.0,6.0,38,0.00,,,0.00,meteohub,2013-01-10 05:03:00,
2013-01-09 22:12:00,28.6,6.8,30.30,SSW,213,1.0,5.0,39,0.00,,,0.00,meteohub,2013-01-10 05:12:00,
2013-01-09 22:22:00,28.4,7.2,30.30,SSW,213,0.0,3.0,40,0.00,,,0.00,meteohub,2013-01-10 05:22:00,
2013-01-09 22:32:00,28.6,7.3,30.30,SSW,213,0.0,5.0,40,0.00,,,0.00,meteohub,2013-01-10 05:32:00,
2013-01-09 22:42:00,28.4,6.6,30.30,SSW,213,2.0,5.0,39,0.00,,,0.00,meteohub,2013-01-10 05:42:00,
2013-01-09 22:52:00,27.9,6.6,30.30,SSW,213,0.0,4.0,40,0.00,,,0.00,meteohub,2013-01-10 05:52:00,
2013-01-09 23:02:00,28.0,6.8,30.30,SSW,212,2.0,7.0,40,0.00,,,0.00,meteohub,2013-01-10 06:02:00,
2013-01-09 23:12:00,27.5,6.8,30.29,SSW,212,1.0,7.0,41,0.00,,,0.00,meteohub,2013-01-10 06:12:00,
2013-01-09 23:22:00,27.7,7.0,30.28,SW,215,5.0,7.0,41,0.00,,,0.00,meteohub,2013-01-10 06:22:00,
2013-01-09 23:32:00,28.6,6.8,30.28,SSW,204,5.0,11.0,39,0.00,,,0.00,meteohub,2013-01-10 06:32:00,
2013-01-09 23:42:00,28.6,6.8,30.27,SSW,198,2.0,9.0,39,0.00,,,0.00,meteohub,2013-01-10 06:42:00,
2013-01-09 23:52:00,27.5,6.8,30.27,SSW,198,0.0,7.0,41,0.00,,,0.00,meteohub,2013-01-10 06:52:00,